Time;durP1;ratioP1;P1;durP2;ratioP2;P2;SDS_P1;SDS_P2;PMS_P1;PMS_P2;Temp;Humidity;BMP_temperature;BMP_pressure;BME280_temperature;BME280_humidity;BME280_pressure;Samples;Min_cycle;Max_cycle;Signal;HPM_P1;HPM_P2
2022/06/27 00:00:19;;;;;;;;;;;;;;;16.13;58.50;100821.16;4960303;28;983;-52
2022/06/27 00:02:44;;;;;;;;;;;;;;;16.14;58.39;100822.81;4965886;28;1007;-48
2022/06/27 00:05:10;;;;;;;;;;;;;;;16.11;58.26;100812.38;4958614;28;1938;-50
2022/06/27 00:07:35;;;;;;;;;;;;;;;16.02;58.36;100821.13;4960207;29;1046;-50
2022/06/27 00:10:01;;;;;;;;;;;;;;;16.37;58.84;100819.59;4959938;29;849;-49
2022/06/27 00:12:26;;;;;;;;;;;;;;;17.70;58.15;100823.41;4965815;28;1015;-48
2022/06/27 00:14:51;;;;;;;;;;;;;;;16.81;60.06;100828.44;4942573;29;1027;-50
2022/06/27 00:17:17;;;;;;;;;;;;;;;16.55;59.71;100831.97;4959763;28;1003;-50
2022/06/27 00:19:42;;;;;;;;;;;;;;;16.42;59.30;100830.59;4963164;28;1085;-49
2022/06/27 00:22:08;;;;;;;;;;;;;;;16.38;58.91;100826.72;4959292;28;1038;-52
2022/06/27 00:24:33;;;;;;;;;;;;;;;16.29;58.96;100820.13;4962462;28;1984;-46
2022/06/27 00:26:59;;;;;;;;;;;;;;;16.19;58.84;100823.66;4959268;28;1053;-52
2022/06/27 00:29:24;;;;;;;;;;;;;;;16.18;58.56;100822.00;4959850;28;1192;-49
2022/06/27 00:31:50;;;;;;;;;;;;;;;16.14;58.39;100817.31;4942009;29;1109;-48
2022/06/27 00:34:16;;;;;;;;;;;;;;;16.11;58.37;100817.88;4959122;29;1244;-47
2022/06/27 00:36:42;;;;;;;;;;;;;;;16.02;58.32;100815.66;4957477;29;854;-46
2022/06/27 00:39:07;;;;;;;;;;;;;;;16.41;58.96;100817.94;4959407;28;1041;-51
2022/06/27 00:41:33;;;;;;;;;;;;;;;17.79;58.06;100813.47;4959680;28;987;-46
2022/06/27 00:43:58;;;;;;;;;;;;;;;16.84;59.84;100819.63;4959621;29;975;-47
2022/06/27 00:46:24;;;;;;;;;;;;;;;16.59;59.81;100819.34;4962727;28;1922;-47
2022/06/27 00:48:49;;;;;;;;;;;;;;;16.48;59.31;100819.59;4941516;29;1103;-47
2022/06/27 00:51:15;;;;;;;;;;;;;;;16.37;59.27;100816.84;4959084;28;1215;-49
2022/06/27 00:53:40;;;;;;;;;;;;;;;16.32;59.15;100811.34;4926647;29;1240;-48
2022/06/27 00:56:05;;;;;;;;;;;;;;;16.24;58.83;100811.84;4941800;29;1126;-48
2022/06/27 00:58:32;;;;;;;;;;;;;;;16.18;58.76;100811.00;4942073;29;1198;-50
2022/06/27 01:00:57;;;;;;;;;;;;;;;16.16;58.42;100815.13;4959006;28;862;-47
2022/06/27 01:03:23;;;;;;;;;;;;;;;16.13;58.43;100822.00;4962035;28;1007;-46
2022/06/27 01:05:51;;;;;;;;;;;;;;;16.10;58.35;100829.94;4941905;29;1974;-49
2022/06/27 01:08:20;;;;;;;;;;;;;;;16.06;58.40;100826.88;4941973;29;995;-47
2022/06/27 01:10:46;;;;;;;;;;;;;;;16.01;58.38;100830.44;4963162;28;956;-46
2022/06/27 01:13:11;;;;;;;;;;;;;;;16.02;58.22;100831.25;4960451;28;895;-49
2022/06/27 01:15:37;;;;;;;;;;;;;;;15.96;58.31;100826.84;4958882;28;1014;-50
2022/06/27 01:18:02;;;;;;;;;;;;;;;15.89;58.54;100824.34;4941170;29;984;-49
2022/06/27 01:20:28;;;;;;;;;;;;;;;16.46;58.84;100827.28;4923704;29;1212;-48
2022/06/27 01:22:53;;;;;;;;;;;;;;;17.55;58.41;100828.94;4943827;29;1275;-49
2022/06/27 01:25:21;;;;;;;;;;;;;;;16.68;59.98;100832.53;4940950;29;1989;-46
2022/06/27 01:27:46;;;;;;;;;;;;;;;16.43;59.96;100829.47;4927131;28;1546;-49
2022/06/27 01:30:17;;;;;;;;;;;;;;;16.33;59.39;100829.44;4941639;29;1327;-43
2022/06/27 01:32:42;;;;;;;;;;;;;;;16.30;59.24;100827.25;4941182;28;1532;-50
2022/06/27 01:35:08;;;;;;;;;;;;;;;16.21;58.76;100826.13;4941277;29;1114;-50
2022/06/27 01:37:33;;;;;;;;;;;;;;;16.16;58.93;100826.09;4957592;28;979;-50
2022/06/27 01:40:00;;;;;;;;;;;;;;;16.11;58.37;100828.84;4941044;29;1315;-48
2022/06/27 01:42:27;;;;;;;;;;;;;;;16.04;58.49;100823.59;4941339;29;1274;-47
2022/06/27 01:44:53;;;;;;;;;;;;;;;16.05;58.21;100826.06;4944256;28;1973;-46
2022/06/27 01:47:18;;;;;;;;;;;;;;;16.00;58.44;100822.47;4941087;29;1093;-50
2022/06/27 01:49:47;;;;;;;;;;;;;;;15.99;58.21;100821.66;4940987;29;1346;-45
2022/06/27 01:52:13;;;;;;;;;;;;;;;15.95;58.28;100828.78;4940151;29;1694;-48
2022/06/27 01:54:40;;;;;;;;;;;;;;;15.90;58.28;100824.09;4958582;28;1150;-48
2022/06/27 01:57:07;;;;;;;;;;;;;;;16.95;58.59;100820.50;4958262;29;999;-45
2022/06/27 01:59:34;;;;;;;;;;;;;;;17.46;58.74;100817.69;4940738;29;1338;-49
2022/06/27 02:02:05;;;;;;;;;;;;;;;16.73;60.08;100841.63;4941018;29;1184;-48
2022/06/27 02:04:30;;;;;;;;;;;;;;;16.50;59.73;100833.88;4940630;29;1900;-50
2022/06/27 02:06:56;;;;;;;;;;;;;;;16.39;59.31;100833.03;4940098;29;1297;-50
2022/06/27 02:09:21;;;;;;;;;;;;;;;16.31;59.04;100828.06;4940099;29;1190;-48
2022/06/27 02:11:48;;;;;;;;;;;;;;;16.24;58.92;100831.06;4940980;29;1386;-44
2022/06/27 02:14:14;;;;;;;;;;;;;;;16.19;58.75;100837.38;4940789;29;1331;-48
2022/06/27 02:16:44;;;;;;;;;;;;;;;16.15;58.54;100836.25;4940376;29;1294;-48
2022/06/27 02:19:14;;;;;;;;;;;;;;;16.07;58.54;100829.38;4940351;29;1461;-50
2022/06/27 02:21:40;;;;;;;;;;;;;;;16.07;58.51;100832.13;4956189;28;987;-45
2022/06/27 02:24:06;;;;;;;;;;;;;;;16.00;58.60;100827.97;4958067;28;1153;-48
2022/06/27 02:26:32;;;;;;;;;;;;;;;16.55;59.25;100834.72;4957929;29;1982;-49
2022/06/27 02:28:58;;;;;;;;;;;;;;;17.51;58.76;100814.09;4957457;28;1169;-47
2022/06/27 02:31:23;;;;;;;;;;;;;;;16.73;60.08;100825.13;4939853;29;1035;-50
2022/06/27 02:33:49;;;;;;;;;;;;;;;16.48;60.07;100828.66;4957807;28;955;-49
2022/06/27 02:36:19;;;;;;;;;;;;;;;16.38;59.50;100828.63;4961591;28;1090;-47
2022/06/27 02:38:45;;;;;;;;;;;;;;;16.31;59.39;100823.41;4940675;29;1722;-48
2022/06/27 02:41:13;;;;;;;;;;;;;;;16.25;58.83;100813.50;4957373;28;1172;-51
2022/06/27 02:43:38;;;;;;;;;;;;;;;16.16;58.62;100820.59;4940392;29;988;-50
2022/06/27 02:46:04;;;;;;;;;;;;;;;16.16;58.45;100826.09;4957498;28;1906;-47
2022/06/27 02:48:31;;;;;;;;;;;;;;;16.05;58.70;100823.31;4942006;29;1255;-47
2022/06/27 02:50:56;;;;;;;;;;;;;;;16.06;58.33;100816.75;4958973;28;1038;-48
2022/06/27 02:53:25;;;;;;;;;;;;;;;16.01;58.52;100822.22;4940321;29;1228;-49
2022/06/27 02:55:59;;;;;;;;;;;;;;;16.01;58.34;100816.72;4939965;29;1133;-49
2022/06/27 02:58:32;;;;;;;;;;;;;;;15.96;58.29;100813.97;4924560;29;1043;-49
2022/06/27 03:00:58;;;;;;;;;;;;;;;16.80;58.80;100824.03;4940864;28;1414;-45
2022/06/27 03:03:24;;;;;;;;;;;;;;;17.84;58.13;100817.28;4939334;29;1321;-52
2022/06/27 03:06:02;;;;;;;;;;;;;;;16.85;60.16;100833.09;4951096;28;1906;-51
2022/06/27 03:08:38;;;;;;;;;;;;;;;16.56;59.83;100824.56;4939012;29;1118;-53
2022/06/27 03:11:04;;;;;;;;;;;;;;;16.46;59.44;100830.03;4952924;28;966;-50
2022/06/27 03:13:30;;;;;;;;;;;;;;;16.38;59.49;100829.47;4940425;29;1277;-52
2022/06/27 03:15:58;;;;;;;;;;;;;;;16.31;59.17;100834.38;4939969;29;1165;-51
2022/06/27 03:18:23;;;;;;;;;;;;;;;16.20;58.97;100833.53;4940116;29;1211;-51
2022/06/27 03:21:07;;;;;;;;;;;;;;;16.15;58.57;100830.75;4956460;28;1266;-51
2022/06/27 03:23:35;;;;;;;;;;;;;;;16.11;58.55;100826.91;4940120;28;1228;-54
2022/06/27 03:26:01;;;;;;;;;;;;;;;16.08;58.71;100820.03;4941794;29;1914;-54
2022/06/27 03:28:33;;;;;;;;;;;;;;;16.06;58.39;100821.41;4942251;29;1137;-53
2022/06/27 03:31:00;;;;;;;;;;;;;;;16.05;58.41;100825.25;4949461;28;1408;-54
2022/06/27 03:33:27;;;;;;;;;;;;;;;16.00;58.51;100825.22;4948569;28;1133;-54
2022/06/27 03:36:01;;;;;;;;;;;;;;;15.95;58.46;100836.16;4943476;29;1310;-50
2022/06/27 03:38:26;;;;;;;;;;;;;;;15.90;58.28;100820.53;4943150;29;1011;-47
2022/06/27 03:40:52;;;;;;;;;;;;;;;15.90;59.07;100831.50;4943603;29;1093;-53
2022/06/27 03:43:17;;;;;;;;;;;;;;;17.52;58.85;100837.75;4960591;28;1299;-47
2022/06/27 03:45:43;;;;;;;;;;;;;;;16.97;60.06;100841.09;4942113;29;1898;-50
2022/06/27 03:49:59;;;;;;;;;;;;;;;16.58;60.25;100844.34;4943499;29;1412;-51
2022/06/27 03:51:15;;;;;;;;;;;;;;;16.41;59.82;100856.38;4959010;28;1223;-53
2022/06/27 03:53:41;;;;;;;;;;;;;;;16.28;59.74;100850.56;4941979;29;1107;-51
2022/06/27 03:56:07;;;;;;;;;;;;;;;16.25;59.39;100847.25;4942635;28;1512;-52
2022/06/27 03:58:33;;;;;;;;;;;;;;;16.16;59.55;100848.88;4944591;29;1141;-50
2022/06/27 04:00:58;;;;;;;;;;;;;;;16.13;59.33;100843.09;4938709;29;1251;-50
2022/06/27 04:03:24;;;;;;;;;;;;;;;16.12;59.36;100845.03;4942008;29;1485;-48
2022/06/27 04:05:52;;;;;;;;;;;;;;;16.08;58.99;100846.66;4942173;29;1914;-49
2022/06/27 04:08:17;;;;;;;;;;;;;;;16.05;59.18;100858.97;4966195;28;1019;-47
2022/06/27 04:10:43;;;;;;;;;;;;;;;16.01;58.98;100849.63;4946222;28;1107;-48
2022/06/27 04:13:09;;;;;;;;;;;;;;;15.97;59.12;100851.25;4943383;29;1264;-49
2022/06/27 04:15:53;;;;;;;;;;;;;;;15.95;59.05;100845.25;4958798;28;1114;-47
2022/06/27 04:18:27;;;;;;;;;;;;;;;15.91;58.74;100841.38;4963441;28;1065;-47
2022/06/27 04:20:59;;;;;;;;;;;;;;;16.00;59.37;100850.72;4959048;28;1248;-51
2022/06/27 04:23:35;;;;;;;;;;;;;;;17.64;59.35;100852.00;4942099;29;1142;-50
2022/06/27 04:26:11;;;;;;;;;;;;;;;16.88;60.85;100854.53;4944359;29;1975;-48
2022/06/27 04:28:36;;;;;;;;;;;;;;;16.55;60.85;100862.16;4941773;29;1102;-47
2022/06/27 04:31:02;;;;;;;;;;;;;;;16.43;60.42;100859.66;4942229;29;1411;-49
2022/06/27 04:33:29;;;;;;;;;;;;;;;16.29;60.09;100858.53;4941881;29;1202;-51
2022/06/27 04:35:54;;;;;;;;;;;;;;;16.23;59.52;100865.09;4958919;28;1047;-51
2022/06/27 04:38:20;;;;;;;;;;;;;;;16.25;59.50;100857.41;4959397;29;1503;-50
2022/06/27 04:41:16;;;;;;;;;;;;;;;16.19;59.19;100858.50;4937839;28;1402;-50
2022/06/27 04:43:45;;;;;;;;;;;;;;;16.11;59.26;100856.28;4936100;29;1189;-51
2022/06/27 04:46:11;;;;;;;;;;;;;;;16.13;58.83;100857.66;4938557;28;1988;-50
2022/06/27 04:48:52;;;;;;;;;;;;;;;16.03;58.90;100854.84;4954396;28;1121;-48
2022/06/27 04:51:18;;;;;;;;;;;;;;;16.01;58.98;100863.34;4945239;28;1320;-45
2022/06/27 04:53:44;;;;;;;;;;;;;;;15.98;59.00;100863.91;4941353;29;1133;-48
2022/06/27 04:56:11;;;;;;;;;;;;;;;15.98;58.60;100861.16;4962046;28;1137;-49
2022/06/27 04:58:37;;;;;;;;;;;;;;;15.96;58.55;100859.75;4941446;29;1217;-49
2022/06/27 05:01:04;;;;;;;;;;;;;;;16.43;59.93;100859.66;4941344;28;1180;-48
2022/06/27 05:03:47;;;;;;;;;;;;;;;17.83;59.15;100857.72;4958724;28;1116;-47
2022/06/27 05:06:21;;;;;;;;;;;;;;;16.85;61.05;100859.75;4941043;29;1917;-48
2022/06/27 05:08:47;;;;;;;;;;;;;;;16.56;60.76;100862.97;4932102;29;1252;-46
2022/06/27 05:11:14;;;;;;;;;;;;;;;16.45;60.22;100864.06;4941706;29;1253;-47
2022/06/27 05:13:40;;;;;;;;;;;;;;;16.35;60.00;100862.09;4958073;28;1050;-48
2022/06/27 05:16:16;;;;;;;;;;;;;;;16.29;59.69;100864.00;4959772;28;1122;-47
2022/06/27 05:18:41;;;;;;;;;;;;;;;16.23;59.49;100865.09;4944926;29;1234;-50
2022/06/27 05:21:08;;;;;;;;;;;;;;;16.21;59.21;100861.78;4941228;29;1221;-50
2022/06/27 05:23:36;;;;;;;;;;;;;;;16.17;58.95;100866.16;4958868;28;1061;-47
2022/06/27 05:26:02;;;;;;;;;;;;;;;16.10;59.12;100882.03;4941331;29;1986;-46
2022/06/27 05:28:28;;;;;;;;;;;;;;;16.08;58.96;100891.34;4957955;28;979;-46
2022/06/27 05:30:54;;;;;;;;;;;;;;;16.06;59.07;100885.31;4941436;28;1172;-46
2022/06/27 05:33:20;;;;;;;;;;;;;;;16.03;58.93;100885.03;4941103;29;1213;-48
2022/06/27 05:35:45;;;;;;;;;;;;;;;16.01;58.63;100882.56;4957787;28;1070;-48
2022/06/27 05:38:11;;;;;;;;;;;;;;;15.96;58.77;100877.03;4941030;29;1291;-47
2022/06/27 05:40:37;;;;;;;;;;;;;;;15.96;58.89;100871.56;4962232;28;832;-44
2022/06/27 05:43:03;;;;;;;;;;;;;;;15.94;58.61;100873.75;4943658;28;1240;-47
2022/06/27 05:45:29;;;;;;;;;;;;;;;15.99;58.86;100878.41;4940148;29;1902;-48
2022/06/27 05:48:13;;;;;;;;;;;;;;;15.92;58.78;100881.41;4957582;28;1217;-48
2022/06/27 05:50:52;;;;;;;;;;;;;;;17.34;59.41;100881.19;4941988;29;1501;-49
2022/06/27 05:53:18;;;;;;;;;;;;;;;17.26;60.37;100876.25;4939566;29;1205;-52
2022/06/27 05:55:46;;;;;;;;;;;;;;;17.39;61.35;100883.09;4940968;29;1188;-50
2022/06/27 05:58:12;;;;;;;;;;;;;;;16.51;60.68;100890.41;4940546;28;1250;-50
2022/06/27 06:00:37;;;;;;;;;;;;;;;16.09;58.64;100892.22;4940800;29;1173;-47
2022/06/27 06:03:05;;;;;;;;;;;;;;;15.90;57.13;100887.16;4942025;28;1283;-52
2022/06/27 06:05:31;;;;;;;;;;;;;;;15.76;56.00;100885.16;4942399;29;1907;-46
2022/06/27 06:08:02;;;;;;;;;;;;;;;15.73;55.67;100881.81;4946694;28;1467;-49
2022/06/27 06:10:28;;;;;;;;;;;;;;;15.66;55.17;100878.50;4946212;28;1195;-45
2022/06/27 06:12:53;;;;;;;;;;;;;;;15.62;55.05;100877.38;4939528;29;1030;-48
2022/06/27 06:15:19;;;;;;;;;;;;;;;15.59;54.45;100875.16;4957675;28;1382;-43
2022/06/27 06:17:44;;;;;;;;;;;;;;;15.55;53.82;100866.63;4960086;28;1119;-46
2022/06/27 06:20:10;;;;;;;;;;;;;;;15.46;54.05;100873.72;4938783;29;1260;-44
2022/06/27 06:22:36;;;;;;;;;;;;;;;15.46;53.75;100873.72;4957448;28;1144;-45
2022/06/27 06:25:02;;;;;;;;;;;;;;;15.45;53.58;100873.97;4940480;29;1894;-47
2022/06/27 06:27:29;;;;;;;;;;;;;;;15.48;53.33;100867.97;4940217;28;1177;-43
2022/06/27 06:29:54;;;;;;;;;;;;;;;15.46;52.94;100870.13;4957894;29;1067;-42
2022/06/27 06:32:20;;;;;;;;;;;;;;;15.45;52.94;100872.06;4936989;29;2471;-47
2022/06/27 06:34:46;;;;;;;;;;;;;;;15.43;53.18;100867.94;4961849;28;1960;-45
2022/06/27 06:37:16;;;;;;;;;;;;;;;15.37;53.25;100867.88;4940082;29;1994;-40
2022/06/27 06:39:42;;;;;;;;;;;;;;;15.42;52.90;100867.09;4938694;29;1955;-44
2022/06/27 06:42:07;;;;;;;;;;;;;;;15.38;53.02;100860.50;4941708;28;2080;-42
2022/06/27 06:44:34;;;;;;;;;;;;;;;15.33;52.80;100855.81;4956963;28;1990;-44
2022/06/27 06:47:33;;;;;;;;;;;;;;;15.42;52.44;100860.78;4926689;29;2103;-41
2022/06/27 06:50:07;;;;;;;;;;;;;;;15.37;52.72;100853.38;4940831;28;1292;-43
2022/06/27 06:52:33;;;;;;;;;;;;;;;15.32;52.63;100867.88;4957262;29;1151;-43
2022/06/27 06:54:59;;;;;;;;;;;;;;;15.36;52.42;100862.66;4957138;28;1243;-46
2022/06/27 06:57:24;;;;;;;;;;;;;;;15.33;52.22;100858.56;4957335;29;892;-46
2022/06/27 06:59:50;;;;;;;;;;;;;;;15.34;52.44;100851.97;4963369;28;964;-46
2022/06/27 07:02:16;;;;;;;;;;;;;;;15.32;52.53;100865.13;4961002;28;1069;-46
2022/06/27 07:04:41;;;;;;;;;;;;;;;15.35;52.03;100866.53;4960278;28;1898;-42
2022/06/27 07:07:07;;;;;;;;;;;;;;;15.31;52.05;100860.72;4962706;28;948;-42
2022/06/27 07:09:32;;;;;;;;;;;;;;;15.38;52.20;100864.06;4964205;28;971;-41
2022/06/27 07:11:57;;;;;;;;;;;;;;;15.38;51.86;100857.75;4961354;28;995;-45
2022/06/27 07:14:26;;;;;;;;;;;;;;;15.34;52.22;100865.66;4965498;28;1023;-45
2022/06/27 07:16:52;;;;;;;;;;;;;;;15.36;52.29;100863.50;4961105;29;2468;-43
2022/06/27 07:19:18;;;;;;;;;;;;;;;15.36;52.08;100859.94;4963853;28;1153;-44
2022/06/27 07:21:43;;;;;;;;;;;;;;;15.36;51.96;100852.56;4960043;29;879;-45
2022/06/27 07:24:09;;;;;;;;;;;;;;;15.35;52.14;100867.34;4966810;28;1381;-45
2022/06/27 07:26:35;;;;;;;;;;;;;;;15.39;51.85;100865.72;4960716;29;1903;-43
2022/06/27 07:29:03;;;;;;;;;;;;;;;15.34;52.32;100865.66;4960461;28;1153;-44
2022/06/27 07:31:28;;;;;;;;;;;;;;;15.33;52.12;100853.09;4959723;28;2483;-42
2022/06/27 07:33:54;;;;;;;;;;;;;;;15.35;51.97;100859.13;4959916;28;2093;-39
2022/06/27 07:36:19;;;;;;;;;;;;;;;15.32;51.98;100862.38;4957252;28;2050;-44
2022/06/27 07:38:47;;;;;;;;;;;;;;;15.31;52.00;100855.25;4961798;28;1927;-43
2022/06/27 07:41:13;;;;;;;;;;;;;;;15.39;51.89;100853.94;4945616;28;2389;-39
2022/06/27 07:43:39;;;;;;;;;;;;;;;15.34;51.86;100851.16;4956255;29;2226;-38
2022/06/27 07:46:05;;;;;;;;;;;;;;;15.43;51.82;100851.47;4953765;29;2218;-44
2022/06/27 07:48:30;;;;;;;;;;;;;;;15.41;51.62;100846.28;4960097;28;1007;-40
2022/06/27 07:50:56;;;;;;;;;;;;;;;15.35;51.74;100845.41;4958944;29;1035;-40
2022/06/27 07:53:22;;;;;;;;;;;;;;;15.39;51.61;100849.28;4960034;28;1262;-38
2022/06/27 07:55:54;;;;;;;;;;;;;;;15.38;51.57;100850.34;4960588;28;1014;-42
2022/06/27 07:58:26;;;;;;;;;;;;;;;15.30;51.76;100848.09;4959838;28;1058;-43
2022/06/27 08:00:51;;;;;;;;;;;;;;;15.31;51.92;100855.25;4936809;29;1155;-41
2022/06/27 08:06:01;;;;;;;;;;;;;;;15.35;51.80;100856.38;4957768;28;1906;-38
2022/06/27 08:08:26;;;;;;;;;;;;;;;15.37;51.77;100854.19;4964615;28;1568;-45
2022/06/27 08:10:52;;;;;;;;;;;;;;;15.38;51.44;100850.34;4959344;28;1085;-45
2022/06/27 08:13:17;;;;;;;;;;;;;;;15.33;51.88;100853.09;4959396;28;790;-43
2022/06/27 08:15:44;;;;;;;;;;;;;;;15.32;51.80;100851.44;4957605;28;2398;-45
2022/06/27 08:18:09;;;;;;;;;;;;;;;15.37;51.57;100853.38;4959913;28;1002;-43
2022/06/27 08:20:35;;;;;;;;;;;;;;;15.33;51.57;100853.09;4959417;28;1232;-38
2022/06/27 08:23:01;;;;;;;;;;;;;;;15.39;51.31;100845.72;4942163;29;1027;-39
2022/06/27 08:25:26;;;;;;;;;;;;;;;15.38;51.41;100858.59;4959154;28;1919;-42
2022/06/27 08:27:52;;;;;;;;;;;;;;;15.35;51.35;100856.38;4959228;28;1026;-41
2022/06/27 08:30:17;;;;;;;;;;;;;;;15.38;51.26;100864.06;4958082;28;1138;-44
2022/06/27 08:32:43;;;;;;;;;;;;;;;15.38;51.70;100858.59;4959504;28;1043;-41
2022/06/27 08:35:09;;;;;;;;;;;;;;;15.39;51.46;100846.53;4959395;29;1003;-44
2022/06/27 08:37:34;;;;;;;;;;;;;;;15.39;51.31;100856.69;4959379;28;1137;-46
2022/06/27 08:40:01;;;;;;;;;;;;;;;15.35;51.64;100858.28;4959418;29;1404;-46
2022/06/27 08:42:26;;;;;;;;;;;;;;;15.36;51.59;100852.56;4958938;28;1078;-39
2022/06/27 08:44:52;;;;;;;;;;;;;;;15.35;51.46;100850.06;4958492;28;1981;-44
2022/06/27 08:47:18;;;;;;;;;;;;;;;15.31;51.46;100848.94;4958798;29;2722;-43
2022/06/27 08:49:46;;;;;;;;;;;;;;;15.36;51.54;100841.59;4962893;28;924;-43
2022/06/27 08:52:11;;;;;;;;;;;;;;;15.36;51.51;100840.75;4960017;28;1216;-43
2022/06/27 08:54:37;;;;;;;;;;;;;;;15.33;51.57;100847.59;4960517;28;979;-41
2022/06/27 08:57:04;;;;;;;;;;;;;;;15.39;51.63;100846.53;4961794;28;1307;-41
2022/06/27 08:59:30;;;;;;;;;;;;;;;15.40;51.52;100837.25;4958917;29;1011;-43
2022/06/27 09:01:56;;;;;;;;;;;;;;;15.34;51.49;100830.06;4940881;29;1184;-42
2022/06/27 09:04:21;;;;;;;;;;;;;;;15.35;51.56;100836.38;4958769;28;1364;-40
2022/06/27 09:06:47;;;;;;;;;;;;;;;15.37;51.56;100837.75;4957779;28;1898;-45
2022/06/27 09:09:15;;;;;;;;;;;;;;;15.34;51.69;100832.78;4958814;28;1140;-42
2022/06/27 09:11:41;;;;;;;;;;;;;;;15.40;51.26;100837.25;4961498;28;971;-42
2022/06/27 09:14:27;;;;;;;;;;;;;;;15.34;51.52;100832.78;4958518;28;1165;-44
2022/06/27 09:16:57;;;;;;;;;;;;;;;15.41;51.34;100829.84;4956079;28;2113;-41
2022/06/27 09:19:42;;;;;;;;;;;;;;;15.37;51.58;100821.31;4958751;28;1189;-42
2022/06/27 09:22:15;;;;;;;;;;;;;;;15.40;51.77;100837.25;4957676;28;933;-46
2022/06/27 09:25:04;;;;;;;;;;;;;;;15.36;51.56;100825.16;4963602;28;1003;-42
2022/06/27 09:27:43;;;;;;;;;;;;;;;15.44;51.39;100825.75;4948158;28;1367;-42
2022/06/27 09:30:17;;;;;;;;;;;;;;;15.39;51.58;100813.66;4958104;28;991;-44
2022/06/27 09:32:43;;;;;;;;;;;;;;;15.36;51.76;100825.16;4957933;28;1125;-46
2022/06/27 09:35:33;;;;;;;;;;;;;;;15.44;51.59;100821.06;4958506;28;976;-46
2022/06/27 09:38:00;;;;;;;;;;;;;;;15.39;51.75;100819.13;4957217;28;1157;-38
2022/06/27 09:40:26;;;;;;;;;;;;;;;15.38;52.08;100817.47;4958184;29;1078;-45
2022/06/27 09:42:52;;;;;;;;;;;;;;;15.48;51.77;100805.75;4957670;28;1212;-40
2022/06/27 09:45:17;;;;;;;;;;;;;;;15.50;51.89;100824.66;4956329;28;2469;-42
2022/06/27 09:47:43;;;;;;;;;;;;;;;15.46;51.87;100809.84;4939266;28;1471;-49
2022/06/27 09:50:09;;;;;;;;;;;;;;;15.42;52.03;100808.72;4957770;29;1382;-47
2022/06/27 09:52:35;;;;;;;;;;;;;;;15.45;51.96;100813.69;4953191;29;1257;-43
2022/06/27 09:55:00;;;;;;;;;;;;;;;15.45;51.63;100805.47;4940322;29;1161;-45
2022/06/27 09:57:26;;;;;;;;;;;;;;;15.48;51.59;100807.69;4940410;29;1142;-49
2022/06/27 09:59:52;;;;;;;;;;;;;;;15.48;51.71;100813.16;4957915;28;1137;-47
2022/06/27 10:02:19;;;;;;;;;;;;;;;15.47;52.21;100808.75;4957782;28;1082;-47
2022/06/27 10:04:51;;;;;;;;;;;;;;;15.47;51.99;100814.25;4957685;28;1142;-44
2022/06/27 10:07:17;;;;;;;;;;;;;;;15.52;51.80;100817.03;4960532;28;977;-44
2022/06/27 10:09:42;;;;;;;;;;;;;;;15.49;51.72;100812.09;4957498;28;1132;-45
2022/06/27 10:12:26;;;;;;;;;;;;;;;15.48;51.86;100810.41;4940563;28;1133;-45
2022/06/27 10:15:07;;;;;;;;;;;;;;;15.46;51.95;100807.09;4940026;28;2326;-37
2022/06/27 10:17:36;;;;;;;;;;;;;;;15.51;51.90;100805.22;4955493;28;1837;-40
2022/06/27 10:20:06;;;;;;;;;;;;;;;15.56;51.67;100796.22;4954103;28;1919;-44
2022/06/27 10:22:31;;;;;;;;;;;;;;;15.65;52.35;100802.00;4956855;29;1848;-38
2022/06/27 10:25:12;;;;;;;;;;;;;;;15.56;52.33;100791.56;4956635;28;2449;-44
2022/06/27 10:27:38;;;;;;;;;;;;;;;15.56;52.05;100780.59;4941539;29;1928;-45
2022/06/27 10:30:12;;;;;;;;;;;;;;;15.54;52.05;100792.91;4957353;28;2034;-41
2022/06/27 10:32:40;;;;;;;;;;;;;;;15.54;51.89;100792.91;4936652;29;1163;-43
2022/06/27 10:35:06;;;;;;;;;;;;;;;15.56;51.89;100790.75;4959402;28;1392;-38
2022/06/27 10:37:31;;;;;;;;;;;;;;;15.58;51.82;100772.09;4961627;28;1042;-40
2022/06/27 10:40:15;;;;;;;;;;;;;;;15.57;51.91;100775.91;4954658;28;1069;-41
2022/06/27 10:42:53;;;;;;;;;;;;;;;15.59;51.68;100767.47;4962881;28;1038;-39
2022/06/27 10:45:27;;;;;;;;;;;;;;;15.62;51.81;100775.13;4963635;28;1906;-37
2022/06/27 10:47:53;;;;;;;;;;;;;;;15.58;51.58;100761.13;4961079;28;1162;-39
2022/06/27 10:50:19;;;;;;;;;;;;;;;15.57;51.79;100762.22;4964415;28;1098;-43
2022/06/27 10:52:45;;;;;;;;;;;;;;;15.68;51.72;100761.19;4961396;28;1329;-41
2022/06/27 10:55:23;;;;;;;;;;;;;;;15.62;51.87;100747.72;4943978;29;1175;-43
2022/06/27 10:57:48;;;;;;;;;;;;;;;15.65;51.80;100753.47;4960858;28;1018;-41
2022/06/27 11:00:33;;;;;;;;;;;;;;;15.62;51.99;100753.22;4943963;29;2464;-38
2022/06/27 11:02:59;;;;;;;;;;;;;;;15.66;51.87;100741.44;4960909;28;1169;-40
2022/06/27 11:05:24;;;;;;;;;;;;;;;15.67;51.67;100737.59;4960908;28;1961;-42
2022/06/27 11:07:51;;;;;;;;;;;;;;;15.67;51.86;100748.56;4943555;29;1082;-42
2022/06/27 11:10:16;;;;;;;;;;;;;;;15.68;51.54;100733.78;4961692;28;1129;-42
2022/06/27 11:12:42;;;;;;;;;;;;;;;15.66;51.72;100741.44;4960722;29;1007;-44
2022/06/27 11:15:07;;;;;;;;;;;;;;;15.63;51.81;100739.25;4967214;28;964;-44
2022/06/27 11:17:33;;;;;;;;;;;;;;;15.60;51.84;100719.75;4949042;29;1400;-39
2022/06/27 11:20:17;;;;;;;;;;;;;;;15.65;51.53;100726.06;4959577;29;1563;-37
2022/06/27 11:22:43;;;;;;;;;;;;;;;15.68;51.78;100727.47;4960235;28;1165;-46
2022/06/27 11:25:09;;;;;;;;;;;;;;;15.69;51.79;100729.94;4959867;28;1902;-46
2022/06/27 11:27:44;;;;;;;;;;;;;;;15.70;51.81;100720.63;4945355;28;1130;-39
2022/06/27 11:32:54;;;;;;;;;;;;;;;15.70;51.76;100709.66;4960522;28;1252;-41
2022/06/27 11:35:19;;;;;;;;;;;;;;;15.72;51.58;100717.59;4941372;29;1062;-46
2022/06/27 11:37:45;;;;;;;;;;;;;;;15.80;52.29;100719.84;4959914;28;876;-40
2022/06/27 11:40:10;;;;;;;;;;;;;;;15.79;52.23;100717.34;4960879;28;1017;-42
2022/06/27 11:42:38;;;;;;;;;;;;;;;15.79;51.83;100722.84;4969378;28;1074;-40
2022/06/27 11:45:03;;;;;;;;;;;;;;;15.80;51.71;100728.09;4943011;29;1898;-44
2022/06/27 11:47:29;;;;;;;;;;;;;;;15.77;51.59;100723.13;4959602;28;1047;-45
2022/06/27 11:50:00;;;;;;;;;;;;;;;15.73;51.74;100728.28;4962912;28;1204;-37
2022/06/27 11:52:33;;;;;;;;;;;;;;;15.79;51.64;100720.09;4958880;28;1246;-43
2022/06/27 11:55:05;;;;;;;;;;;;;;;15.73;51.73;100717.34;4959351;28;1352;-45
2022/06/27 11:57:33;;;;;;;;;;;;;;;15.74;51.47;100727.22;4960026;28;1026;-40
2022/06/27 12:00:00;;;;;;;;;;;;;;;15.74;51.71;100723.66;4959308;28;1896;-44
2022/06/27 12:02:26;;;;;;;;;;;;;;;15.74;51.45;100719.00;4959425;28;838;-43
2022/06/27 12:05:01;;;;;;;;;;;;;;;15.76;51.27;100731.63;4965863;28;1902;-41
2022/06/27 12:07:26;;;;;;;;;;;;;;;15.78;51.51;100732.16;4960363;28;1157;-42
2022/06/27 12:09:52;;;;;;;;;;;;;;;15.69;51.68;100732.66;4943074;29;995;-46
2022/06/27 12:12:21;;;;;;;;;;;;;;;15.72;51.31;100731.31;4960032;28;995;-42
2022/06/27 12:14:50;;;;;;;;;;;;;;;15.65;51.38;100742.53;4960204;28;1014;-40
2022/06/27 12:17:15;;;;;;;;;;;;;;;15.66;51.56;100746.09;4964675;28;987;-42
2022/06/27 12:19:41;;;;;;;;;;;;;;;15.66;51.50;100749.66;4961717;28;1246;-37
2022/06/27 12:22:12;;;;;;;;;;;;;;;15.64;51.18;100753.75;4962866;28;1000;-39
2022/06/27 12:24:38;;;;;;;;;;;;;;;15.62;51.41;100758.69;4961809;28;1172;-40
2022/06/27 12:27:03;;;;;;;;;;;;;;;15.60;51.49;100752.63;4959370;29;1910;-43
2022/06/27 12:29:29;;;;;;;;;;;;;;;15.55;51.58;100750.72;4960429;28;1153;-42
2022/06/27 12:31:54;;;;;;;;;;;;;;;15.64;51.45;100745.53;4939242;29;2739;-41
2022/06/27 12:34:20;;;;;;;;;;;;;;;15.60;51.35;100761.72;4941703;29;1192;-40
2022/06/27 12:36:45;;;;;;;;;;;;;;;15.62;51.08;100755.94;4958158;28;1096;-44
2022/06/27 12:39:11;;;;;;;;;;;;;;;15.57;51.05;100759.47;4959485;28;1023;-44
2022/06/27 12:41:36;;;;;;;;;;;;;;;15.55;51.05;100759.75;4962436;28;1409;-42
2022/06/27 12:44:02;;;;;;;;;;;;;;;15.44;51.03;100746.28;4958494;28;1482;-42
2022/06/27 12:46:28;;;;;;;;;;;;;;;15.51;50.94;100755.88;4959018;28;1906;-47
2022/06/27 12:48:55;;;;;;;;;;;;;;;15.53;50.85;100761.13;4961506;28;979;-44
2022/06/27 12:51:21;;;;;;;;;;;;;;;15.50;50.78;100761.63;4959271;28;1216;-42
2022/06/27 12:53:46;;;;;;;;;;;;;;;15.52;50.86;100759.47;4958051;28;932;-43
2022/06/27 12:56:13;;;;;;;;;;;;;;;15.51;50.66;100764.09;4959210;28;1130;-43